createdAt,value
2023-08-27T00:01:48.939Z,15.15
2023-08-27T00:04:16.437Z,15.17
2023-08-27T00:06:43.776Z,15.12
2023-08-27T00:09:11.850Z,15.16
2023-08-27T00:11:39.512Z,15.19
2023-08-27T00:14:07.213Z,14.73
2023-08-27T00:16:34.772Z,15.21
2023-08-27T00:19:02.198Z,15.23
2023-08-27T00:21:29.619Z,15.24
2023-08-27T00:23:57.090Z,15.23
2023-08-27T00:26:24.759Z,15.19
2023-08-27T00:28:52.149Z,15.21
2023-08-27T00:31:20.011Z,15.22
2023-08-27T00:33:47.276Z,15.27
2023-08-27T00:36:14.714Z,15.27
2023-08-27T00:38:43.795Z,15.27
2023-08-27T00:41:11.580Z,15.11
2023-08-27T00:43:41.582Z,15.26
2023-08-27T00:46:10.170Z,15.22
2023-08-27T00:48:38.260Z,15.23
2023-08-27T00:51:05.878Z,15.21
2023-08-27T00:53:33.702Z,15.21
2023-08-27T00:56:01.118Z,15.23
2023-08-27T00:58:29.709Z,15.27
2023-08-27T01:00:57.409Z,14.92
2023-08-27T01:03:26.473Z,14.97
2023-08-27T01:05:54.284Z,15.31
2023-08-27T01:08:48.859Z,15.27
2023-08-27T01:11:37.613Z,14.87
2023-08-27T01:14:08.423Z,15.25
2023-08-27T01:16:37.533Z,15.27
2023-08-27T01:19:15.934Z,15.30
2023-08-27T01:21:43.901Z,15.26
2023-08-27T01:24:12.044Z,15.34
2023-08-27T01:26:43.208Z,14.72
2023-08-27T01:29:41.889Z,15.26
2023-08-27T01:32:30.518Z,15.22
2023-08-27T01:34:59.937Z,15.26
2023-08-27T01:37:28.230Z,15.29
2023-08-27T01:40:00.622Z,14.68
2023-08-27T01:42:28.692Z,15.24
2023-08-27T01:44:59.670Z,14.68
2023-08-27T01:47:27.063Z,15.18
2023-08-27T01:49:54.499Z,15.10
2023-08-27T01:52:21.885Z,15.19
2023-08-27T01:54:49.453Z,15.24
2023-08-27T01:57:17.218Z,14.90
2023-08-27T01:59:44.810Z,15.32
2023-08-27T02:02:12.435Z,15.31
2023-08-27T02:04:40.539Z,15.34
2023-08-27T02:07:08.432Z,15.15
2023-08-27T02:09:35.892Z,15.41
2023-08-27T02:12:05.763Z,15.41
2023-08-27T02:14:33.334Z,15.37
2023-08-27T02:17:21.351Z,15.06
2023-08-27T02:19:49.277Z,14.85
2023-08-27T02:22:21.595Z,14.90
2023-08-27T02:24:48.936Z,15.43
2023-08-27T02:27:16.636Z,15.33
2023-08-27T02:29:44.023Z,15.46
2023-08-27T02:32:11.874Z,15.49
2023-08-27T02:34:39.394Z,15.51
2023-08-27T02:37:06.821Z,15.54
2023-08-27T02:39:35.492Z,15.49
2023-08-27T02:42:04.032Z,15.19
2023-08-27T02:44:33.203Z,15.60
2023-08-27T02:47:01.268Z,15.61
2023-08-27T02:49:28.852Z,15.26
2023-08-27T02:51:56.378Z,15.56
2023-08-27T02:54:23.957Z,15.63
2023-08-27T02:56:51.582Z,15.65
2023-08-27T02:59:18.957Z,15.63
2023-08-27T03:01:47.266Z,15.19
2023-08-27T03:04:14.846Z,15.70
2023-08-27T03:06:42.211Z,15.69
2023-08-27T03:09:09.671Z,15.70
2023-08-27T03:11:37.296Z,15.71
2023-08-27T03:14:04.729Z,15.73
2023-08-27T03:16:32.192Z,15.78
2023-08-27T03:19:00.326Z,15.73
2023-08-27T03:21:28.497Z,15.78
2023-08-27T03:23:56.644Z,15.85
2023-08-27T03:26:24.104Z,15.88
2023-08-27T03:28:51.835Z,15.89
2023-08-27T03:31:20.196Z,15.92
2023-08-27T03:33:48.233Z,15.75
2023-08-27T03:36:17.781Z,15.39
2023-08-27T03:38:45.286Z,16.13
2023-08-27T03:41:12.529Z,16.18
2023-08-27T03:43:39.784Z,15.83
2023-08-27T03:46:07.342Z,15.83
2023-08-27T03:48:34.845Z,16.28
2023-08-27T03:51:03.489Z,16.37
2023-08-27T03:53:31.217Z,16.40
2023-08-27T03:56:02.758Z,16.50
2023-08-27T03:58:30.811Z,16.15
2023-08-27T04:00:58.648Z,16.48
2023-08-27T04:03:26.324Z,16.37
2023-08-27T04:05:53.820Z,16.40
2023-08-27T04:08:21.486Z,16.49
2023-08-27T04:10:51.064Z,16.52
2023-08-27T04:13:19.982Z,16.57
2023-08-27T04:15:58.672Z,16.52
2023-08-27T04:18:26.739Z,16.51
2023-08-27T04:20:54.366Z,16.53
2023-08-27T04:23:21.914Z,16.60
2023-08-27T04:25:50.070Z,16.62
2023-08-27T04:28:17.820Z,16.90
2023-08-27T04:30:49.021Z,17.00
2023-08-27T04:33:17.374Z,16.98
2023-08-27T04:35:53.870Z,16.93
2023-08-27T04:38:22.368Z,17.08
2023-08-27T04:40:53.795Z,17.23
2023-08-27T04:43:21.792Z,17.33
2023-08-27T04:45:49.511Z,17.33
2023-08-27T04:48:17.667Z,16.99
2023-08-27T04:50:46.987Z,17.01
2023-08-27T04:53:14.957Z,16.20
2023-08-27T04:55:42.815Z,16.55
2023-08-27T04:58:10.572Z,17.08
2023-08-27T05:00:39.174Z,16.84
2023-08-27T05:03:06.779Z,17.19
2023-08-27T05:05:34.654Z,17.50
2023-08-27T05:08:02.597Z,17.28
2023-08-27T05:10:30.749Z,17.63
2023-08-27T05:12:58.806Z,17.72
2023-08-27T05:15:26.447Z,17.46
2023-08-27T05:17:54.771Z,17.90
2023-08-27T05:20:22.501Z,18.05
2023-08-27T05:22:49.978Z,17.94
2023-08-27T05:25:18.590Z,17.86
2023-08-27T05:27:47.011Z,17.89
2023-08-27T05:30:17.559Z,17.98
2023-08-27T05:32:46.241Z,17.64
2023-08-27T05:35:13.828Z,18.35
2023-08-27T05:37:42.178Z,17.67
2023-08-27T05:40:12.846Z,18.58
2023-08-27T05:42:40.354Z,18.68
2023-08-27T05:45:09.084Z,18.83
2023-08-27T05:47:36.611Z,19.15
2023-08-27T05:50:04.527Z,19.49
2023-08-27T05:52:32.696Z,19.72
2023-08-27T05:55:00.241Z,19.92
2023-08-27T05:57:28.664Z,19.70
2023-08-27T05:59:56.633Z,20.26
2023-08-27T06:02:25.439Z,20.81
2023-08-27T06:04:53.807Z,22.15
2023-08-27T06:07:21.593Z,22.13
2023-08-27T06:09:49.340Z,22.25
2023-08-27T06:12:17.155Z,21.76
2023-08-27T06:14:44.804Z,21.55
2023-08-27T06:17:12.357Z,21.74
2023-08-27T06:19:48.275Z,22.98
2023-08-27T06:22:17.601Z,24.55
2023-08-27T06:24:45.738Z,25.50
2023-08-27T06:27:15.853Z,25.87
2023-08-27T06:29:46.982Z,27.21
2023-08-27T06:32:17.590Z,27.23
2023-08-27T06:34:45.530Z,26.99
2023-08-27T06:37:13.147Z,26.42
2023-08-27T06:39:41.001Z,25.46
2023-08-27T06:42:08.983Z,25.18
2023-08-27T06:44:36.521Z,24.92
2023-08-27T06:47:05.953Z,24.14
2023-08-27T06:49:33.558Z,24.75
2023-08-27T06:52:01.068Z,24.76
2023-08-27T06:54:29.336Z,24.67
2023-08-27T06:56:56.899Z,24.55
2023-08-27T06:59:24.259Z,24.54
2023-08-27T07:01:52.199Z,25.07
2023-08-27T07:04:19.954Z,26.10
2023-08-27T07:06:47.958Z,26.68
2023-08-27T07:09:15.716Z,29.33
2023-08-27T07:11:43.295Z,30.04
2023-08-27T07:14:10.990Z,30.14
2023-08-27T07:16:38.534Z,29.28
2023-08-27T07:19:06.454Z,29.22
2023-08-27T07:21:34.210Z,28.41
2023-08-27T07:24:01.544Z,27.62
2023-08-27T07:26:30.411Z,26.98
2023-08-27T07:28:59.546Z,29.41
2023-08-27T07:31:27.095Z,32.39
2023-08-27T07:33:54.607Z,35.52
2023-08-27T07:36:22.402Z,37.97
2023-08-27T07:38:49.641Z,39.81
2023-08-27T07:41:17.475Z,39.69
2023-08-27T07:43:44.885Z,41.45
2023-08-27T07:46:12.594Z,40.09
2023-08-27T07:48:40.601Z,37.65
2023-08-27T07:51:08.377Z,35.31
2023-08-27T07:53:37.578Z,33.29
2023-08-27T07:56:06.671Z,31.96
2023-08-27T07:58:34.100Z,34.26
2023-08-27T08:01:03.855Z,36.84
2023-08-27T08:03:35.214Z,37.24
2023-08-27T08:06:10.283Z,36.06
2023-08-27T08:08:37.921Z,36.51
2023-08-27T08:11:05.391Z,37.77
2023-08-27T08:13:37.209Z,38.81
2023-08-27T08:16:04.748Z,37.14
2023-08-27T08:18:32.196Z,35.20
2023-08-27T08:21:01.335Z,34.32
2023-08-27T08:23:29.581Z,32.85
2023-08-27T08:25:59.811Z,31.33
2023-08-27T08:28:27.590Z,29.41
2023-08-27T08:30:54.978Z,28.52
2023-08-27T08:33:22.441Z,26.73
2023-08-27T08:35:49.793Z,27.39
2023-08-27T08:38:17.333Z,27.87
2023-08-27T08:40:49.538Z,28.10
2023-08-27T08:43:29.681Z,28.50
2023-08-27T08:46:06.815Z,28.86
2023-08-27T08:48:43.059Z,28.66
2023-08-27T08:51:12.539Z,27.86
2023-08-27T08:53:46.334Z,26.90
2023-08-27T08:56:24.717Z,25.53
2023-08-27T08:58:55.843Z,25.52
2023-08-27T09:01:24.506Z,25.24
2023-08-27T09:03:53.785Z,24.83
2023-08-27T09:06:22.920Z,25.18
2023-08-27T09:08:53.031Z,26.08
2023-08-27T09:11:23.429Z,26.44
2023-08-27T09:13:52.746Z,26.01
2023-08-27T09:16:20.079Z,26.19
2023-08-27T09:18:49.396Z,25.61
2023-08-27T09:21:16.757Z,24.96
2023-08-27T09:23:44.110Z,24.24
2023-08-27T09:26:13.943Z,24.31
2023-08-27T09:28:42.077Z,24.65
2023-08-27T09:31:12.468Z,25.03
2023-08-27T09:33:43.368Z,25.02
2023-08-27T09:36:11.235Z,24.17
2023-08-27T09:38:40.702Z,24.67
2023-08-27T09:41:18.554Z,24.10
2023-08-27T09:43:55.379Z,23.73
2023-08-27T09:46:23.360Z,23.69
2023-08-27T09:49:02.376Z,23.61
2023-08-27T09:51:30.407Z,23.55
2023-08-27T09:53:57.656Z,23.81
2023-08-27T09:56:29.660Z,24.02
2023-08-27T09:58:57.760Z,24.25
2023-08-27T10:01:34.923Z,24.18
2023-08-27T10:04:04.632Z,24.05
2023-08-27T10:06:41.271Z,24.19
2023-08-27T10:09:08.704Z,24.49
2023-08-27T10:11:37.123Z,24.60
2023-08-27T10:14:06.237Z,24.75
2023-08-27T10:16:36.368Z,24.61
2023-08-27T10:19:05.578Z,24.60
2023-08-27T10:21:34.263Z,23.98
2023-08-27T10:24:02.432Z,23.93
2023-08-27T10:26:31.758Z,24.51
2023-08-27T10:29:00.429Z,24.30
2023-08-27T10:31:28.206Z,24.61
2023-08-27T10:33:55.593Z,24.12
2023-08-27T10:36:28.750Z,24.13
2023-08-27T10:38:58.068Z,24.64
2023-08-27T10:41:27.383Z,24.33
2023-08-27T10:43:55.056Z,24.12
2023-08-27T10:46:25.758Z,23.93
2023-08-27T10:48:55.356Z,23.76
2023-08-27T10:51:29.442Z,23.60
2023-08-27T10:53:59.242Z,23.54
2023-08-27T10:56:40.172Z,23.58
2023-08-27T10:59:27.693Z,23.83
2023-08-27T11:01:54.956Z,23.89
2023-08-27T11:04:22.422Z,23.94
2023-08-27T11:06:53.067Z,24.20
2023-08-27T11:09:25.630Z,24.36
2023-08-27T11:11:59.138Z,24.42
2023-08-27T11:14:27.066Z,23.95
2023-08-27T11:17:02.767Z,23.22
2023-08-27T11:19:38.060Z,23.76
2023-08-27T11:22:15.752Z,23.46
2023-08-27T11:24:45.456Z,23.34
2023-08-27T11:27:15.334Z,23.30
2023-08-27T11:29:44.780Z,23.38
2023-08-27T11:32:13.701Z,23.51
2023-08-27T11:34:43.624Z,23.52
2023-08-27T11:37:11.912Z,23.59
2023-08-27T11:39:40.626Z,23.59
2023-08-27T11:42:15.332Z,23.18
2023-08-27T11:44:51.070Z,23.16
2023-08-27T11:47:20.201Z,23.57
2023-08-27T11:49:47.535Z,23.50
2023-08-27T11:52:15.497Z,23.61
2023-08-27T11:54:48.046Z,23.62
2023-08-27T11:57:16.639Z,23.81
2023-08-27T11:59:45.159Z,23.65
2023-08-27T12:02:15.457Z,23.54
2023-08-27T12:04:44.172Z,23.86
2023-08-27T12:07:11.743Z,23.87
2023-08-27T12:09:39.783Z,23.85
2023-08-27T12:12:08.954Z,23.61
2023-08-27T12:14:38.014Z,23.19
2023-08-27T12:17:11.091Z,22.93
2023-08-27T12:19:45.288Z,22.59
2023-08-27T12:22:16.130Z,22.30
2023-08-27T12:24:45.375Z,22.29
2023-08-27T12:27:17.564Z,21.78
2023-08-27T12:29:47.615Z,22.24
2023-08-27T12:32:17.579Z,22.09
2023-08-27T12:34:50.331Z,21.47
2023-08-27T12:37:21.158Z,21.91
2023-08-27T12:39:49.248Z,22.01
2023-08-27T12:42:17.217Z,21.95
2023-08-27T12:44:48.811Z,21.32
2023-08-27T12:47:18.683Z,21.71
2023-08-27T12:49:46.631Z,21.71
2023-08-27T12:52:14.597Z,21.71
2023-08-27T12:54:43.042Z,21.70
2023-08-27T12:57:12.227Z,21.83
2023-08-27T12:59:39.406Z,21.89
2023-08-27T13:02:08.539Z,21.96
2023-08-27T13:04:36.231Z,22.05
2023-08-27T13:07:03.685Z,22.18
2023-08-27T13:09:31.157Z,22.40
2023-08-27T13:11:58.452Z,22.58
2023-08-27T13:14:25.768Z,22.75
2023-08-27T13:16:53.908Z,22.91
2023-08-27T13:19:21.485Z,23.11
2023-08-27T13:21:48.900Z,23.28
2023-08-27T13:24:18.224Z,23.29
2023-08-27T13:26:47.949Z,23.15
2023-08-27T13:29:15.315Z,23.00
2023-08-27T13:31:42.750Z,22.83
2023-08-27T13:34:10.375Z,22.65
2023-08-27T13:36:37.692Z,22.50
2023-08-27T13:39:05.375Z,22.31
2023-08-27T13:41:38.126Z,22.40
2023-08-27T13:44:06.491Z,22.43
2023-08-27T13:46:33.980Z,22.03
2023-08-27T13:49:01.869Z,22.48
2023-08-27T13:51:30.356Z,22.52
2023-08-27T13:53:57.838Z,22.49
2023-08-27T13:56:25.295Z,22.63
2023-08-27T13:58:52.773Z,22.45
2023-08-27T14:01:25.716Z,22.47
2023-08-27T14:03:53.413Z,22.34
2023-08-27T14:06:21.097Z,21.82
2023-08-27T14:08:48.666Z,21.40
2023-08-27T14:11:16.343Z,22.04
2023-08-27T14:13:45.756Z,22.00
2023-08-27T14:16:13.702Z,22.03
2023-08-27T14:18:41.801Z,21.91
2023-08-27T14:21:10.299Z,21.93
2023-08-27T14:23:38.047Z,21.62
2023-08-27T14:26:05.375Z,21.54
2023-08-27T14:28:32.907Z,21.41
2023-08-27T14:31:00.222Z,21.40
2023-08-27T14:33:27.596Z,21.48
2023-08-27T14:35:54.996Z,21.45
2023-08-27T14:38:22.332Z,21.39
2023-08-27T14:40:49.854Z,21.32
2023-08-27T14:43:17.544Z,21.23
2023-08-27T14:45:44.943Z,21.15
2023-08-27T14:48:12.421Z,21.16
2023-08-27T14:50:39.730Z,20.70
2023-08-27T14:53:08.354Z,20.93
2023-08-27T14:55:36.154Z,20.90
2023-08-27T14:58:03.990Z,20.81
2023-08-27T15:00:31.890Z,20.62
2023-08-27T15:02:59.434Z,20.51
2023-08-27T15:05:26.913Z,20.33
2023-08-27T15:07:54.588Z,20.20
2023-08-27T15:10:22.450Z,20.15
2023-08-27T15:12:49.888Z,20.10
2023-08-27T15:15:17.328Z,20.19
2023-08-27T15:17:44.925Z,20.01
2023-08-27T15:20:12.570Z,20.16
2023-08-27T15:22:39.971Z,20.14
2023-08-27T15:25:08.029Z,19.84
2023-08-27T15:27:35.377Z,19.54
2023-08-27T15:30:06.071Z,19.97
2023-08-27T15:32:33.931Z,19.85
2023-08-27T15:35:02.410Z,19.77
2023-08-27T15:37:32.048Z,19.53
2023-08-27T15:39:59.519Z,19.52
2023-08-27T15:42:29.146Z,19.45
2023-08-27T15:44:56.787Z,18.90
2023-08-27T15:47:24.676Z,19.24
2023-08-27T15:49:51.979Z,19.15
2023-08-27T15:52:19.210Z,19.05
2023-08-27T15:54:47.920Z,19.04
2023-08-27T15:57:15.263Z,18.86
2023-08-27T15:59:42.768Z,18.49
2023-08-27T16:02:10.195Z,18.96
2023-08-27T16:04:40.276Z,18.88
2023-08-27T16:07:07.758Z,18.78
2023-08-27T16:09:35.352Z,18.82
2023-08-27T16:12:03.243Z,18.76
2023-08-27T16:14:30.639Z,18.70
2023-08-27T16:16:58.030Z,18.60
2023-08-27T16:19:25.305Z,18.16
2023-08-27T16:21:52.771Z,18.02
2023-08-27T16:24:20.630Z,18.37
2023-08-27T16:26:48.206Z,18.30
2023-08-27T16:29:15.659Z,18.19
2023-08-27T16:31:43.081Z,18.10
2023-08-27T16:34:10.333Z,18.01
2023-08-27T16:36:37.846Z,17.40
2023-08-27T16:39:05.573Z,17.68
2023-08-27T16:41:32.953Z,17.68
2023-08-27T16:44:00.794Z,17.65
2023-08-27T16:46:28.390Z,16.59
2023-08-27T16:48:55.842Z,17.47
2023-08-27T16:51:23.308Z,17.24
2023-08-27T16:53:51.781Z,15.55
2023-08-27T16:56:19.446Z,17.15
2023-08-27T16:58:47.200Z,17.08
2023-08-27T17:01:14.707Z,17.02
2023-08-27T17:03:42.310Z,16.97
2023-08-27T17:06:09.766Z,16.89
2023-08-27T17:08:37.029Z,16.81
2023-08-27T17:11:04.866Z,16.56
2023-08-27T17:13:32.303Z,16.71
2023-08-27T17:15:59.920Z,16.56
2023-08-27T17:18:27.383Z,16.57
2023-08-27T17:20:55.170Z,15.89
2023-08-27T17:23:23.189Z,16.55
2023-08-27T17:25:50.858Z,16.47
2023-08-27T17:28:21.603Z,16.50
2023-08-27T17:30:55.120Z,16.43
2023-08-27T17:33:22.861Z,16.40
2023-08-27T17:35:50.470Z,16.37
2023-08-27T17:38:17.768Z,16.35
2023-08-27T17:40:45.284Z,16.32
2023-08-27T17:43:12.959Z,16.29
2023-08-27T17:45:42.340Z,16.23
2023-08-27T17:48:12.849Z,16.14
2023-08-27T17:50:40.764Z,15.66
2023-08-27T17:53:08.981Z,15.84
2023-08-27T17:55:37.931Z,15.93
2023-08-27T17:58:05.880Z,15.98
2023-08-27T18:00:33.539Z,15.03
2023-08-27T18:03:01.331Z,15.79
2023-08-27T18:05:29.177Z,15.94
2023-08-27T18:07:56.938Z,15.92
2023-08-27T18:10:24.461Z,15.82
2023-08-27T18:12:52.100Z,15.76
2023-08-27T18:15:19.637Z,15.42
2023-08-27T18:17:47.281Z,15.82
2023-08-27T18:20:15.128Z,15.82
2023-08-27T18:22:42.596Z,15.82
2023-08-27T18:25:10.286Z,15.56
2023-08-27T18:27:37.752Z,15.70
2023-08-27T18:30:06.291Z,15.72
2023-08-27T18:32:33.925Z,15.65
2023-08-27T18:35:01.813Z,15.66
2023-08-27T18:37:31.203Z,15.55
2023-08-27T18:39:58.934Z,15.07
2023-08-27T18:42:33.519Z,15.60
2023-08-27T18:45:02.102Z,15.54
2023-08-27T18:47:35.880Z,15.41
2023-08-27T18:50:04.550Z,15.44
2023-08-27T18:52:33.348Z,15.44
2023-08-27T18:55:02.564Z,14.68
2023-08-27T18:57:33.411Z,15.32
2023-08-27T19:00:01.256Z,14.57
2023-08-27T19:02:34.626Z,15.34
2023-08-27T19:05:02.410Z,15.32
2023-08-27T19:07:32.465Z,15.21
2023-08-27T19:09:59.976Z,14.81
2023-08-27T19:12:27.221Z,15.24
2023-08-27T19:14:54.718Z,15.17
2023-08-27T19:17:23.580Z,14.71
2023-08-27T19:19:51.005Z,15.19
2023-08-27T19:22:18.497Z,14.91
2023-08-27T19:24:46.408Z,15.08
2023-08-27T19:27:13.993Z,15.15
2023-08-27T19:29:41.574Z,15.11
2023-08-27T19:32:09.208Z,14.94
2023-08-27T19:34:36.659Z,15.11
2023-08-27T19:37:04.302Z,15.05
2023-08-27T19:39:31.969Z,15.07
2023-08-27T19:41:59.773Z,15.04
2023-08-27T19:44:27.119Z,15.01
2023-08-27T19:46:56.185Z,15.02
2023-08-27T19:49:23.589Z,15.01
2023-08-27T19:51:51.023Z,14.94
2023-08-27T19:54:18.582Z,14.93
2023-08-27T19:56:47.654Z,14.90
2023-08-27T19:59:18.081Z,14.14
2023-08-27T20:01:48.489Z,14.69
2023-08-27T20:04:16.554Z,14.83
2023-08-27T20:06:44.066Z,14.68
2023-08-27T20:09:12.149Z,14.80
2023-08-27T20:11:40.447Z,14.81
2023-08-27T20:14:08.157Z,14.79
2023-08-27T20:16:36.077Z,14.36
2023-08-27T20:19:03.868Z,14.35
2023-08-27T20:21:31.236Z,14.68
2023-08-27T20:23:58.725Z,14.69
2023-08-27T20:26:26.050Z,14.67
2023-08-27T20:29:02.183Z,14.58
2023-08-27T20:31:37.927Z,14.15
2023-08-27T20:34:08.444Z,14.68
2023-08-27T20:36:36.328Z,14.68
2023-08-27T20:39:04.392Z,14.56
2023-08-27T20:41:32.116Z,14.62
2023-08-27T20:44:00.117Z,14.54
2023-08-27T20:46:27.710Z,14.62
2023-08-27T20:48:56.229Z,14.21
2023-08-27T20:51:23.549Z,14.43
2023-08-27T20:53:50.975Z,14.57
2023-08-27T20:56:18.442Z,14.54
2023-08-27T20:58:49.268Z,14.40
2023-08-27T21:01:22.124Z,13.20
2023-08-27T21:03:49.666Z,14.07
2023-08-27T21:06:17.039Z,14.41
2023-08-27T21:08:44.342Z,14.38
2023-08-27T21:11:11.720Z,14.43
2023-08-27T21:13:39.055Z,14.41
2023-08-27T21:16:06.469Z,14.39
2023-08-27T21:18:34.079Z,14.35
2023-08-27T21:21:01.731Z,14.37
2023-08-27T21:23:29.081Z,13.89
2023-08-27T21:25:57.908Z,14.12
2023-08-27T21:28:26.663Z,14.27
2023-08-27T21:30:54.027Z,14.25
2023-08-27T21:33:21.768Z,13.76
2023-08-27T21:35:49.170Z,14.24
2023-08-27T21:38:16.476Z,14.13
2023-08-27T21:40:44.707Z,14.17
2023-08-27T21:43:12.497Z,14.11
2023-08-27T21:45:40.051Z,13.94
2023-08-27T21:48:07.731Z,13.26
2023-08-27T21:50:35.227Z,13.91
2023-08-27T21:53:02.824Z,14.01
2023-08-27T21:55:30.568Z,14.04
2023-08-27T21:57:57.877Z,14.02
2023-08-27T22:00:25.735Z,13.89
2023-08-27T22:02:54.984Z,13.98
2023-08-27T22:05:22.733Z,13.87
2023-08-27T22:07:52.584Z,13.95
2023-08-27T22:10:25.107Z,13.51
2023-08-27T22:12:52.625Z,13.89
2023-08-27T22:15:20.764Z,13.92
2023-08-27T22:17:48.448Z,13.93
2023-08-27T22:20:15.811Z,13.50
2023-08-27T22:22:43.087Z,13.90
2023-08-27T22:25:10.613Z,13.88
2023-08-27T22:27:37.934Z,13.90
2023-08-27T22:30:07.134Z,13.88
2023-08-27T22:32:35.106Z,13.85
2023-08-27T22:35:13.413Z,13.82
2023-08-27T22:37:41.078Z,13.40
2023-08-27T22:40:09.275Z,13.75
2023-08-27T22:42:36.907Z,13.35
2023-08-27T22:45:04.479Z,13.61
2023-08-27T22:47:36.073Z,13.80
2023-08-27T22:50:03.996Z,13.84
2023-08-27T22:52:33.959Z,13.85
2023-08-27T22:55:01.489Z,13.67
2023-08-27T22:57:33.127Z,13.80
2023-08-27T23:00:00.585Z,13.82
2023-08-27T23:02:28.256Z,13.77
2023-08-27T23:04:55.848Z,13.23
2023-08-27T23:07:23.520Z,13.55
2023-08-27T23:09:51.004Z,13.36
2023-08-27T23:12:18.524Z,13.36
2023-08-27T23:14:45.834Z,13.09
2023-08-27T23:17:13.354Z,13.51
2023-08-27T23:19:41.582Z,13.56
2023-08-27T23:22:10.136Z,13.49
2023-08-27T23:24:37.355Z,13.47
2023-08-27T23:27:05.043Z,13.46
2023-08-27T23:29:32.363Z,13.30
2023-08-27T23:31:59.684Z,13.38
2023-08-27T23:34:27.034Z,12.97
2023-08-27T23:36:56.160Z,13.16
2023-08-27T23:39:23.557Z,13.33
2023-08-27T23:41:51.081Z,13.33
2023-08-27T23:44:18.639Z,12.64
2023-08-27T23:46:46.400Z,13.29
2023-08-27T23:49:13.793Z,13.18
2023-08-27T23:51:41.736Z,13.22
2023-08-27T23:54:09.016Z,13.24
2023-08-27T23:56:36.780Z,13.04
2023-08-27T23:59:04.414Z,13.08
